createdAt,value
2019-05-21T00:00:00.302Z,27.93
2019-05-21T00:01:05.350Z,27.67
2019-05-21T00:02:11.183Z,28.10
2019-05-21T00:03:16.283Z,29.25
2019-05-21T00:04:28.286Z,27.67
2019-05-21T00:05:28.908Z,24.67
2019-05-21T00:06:34.803Z,26.87
2019-05-21T00:07:40.183Z,25.27
2019-05-21T00:08:45.791Z,25.23
2019-05-21T00:09:50.782Z,23.77
2019-05-21T00:10:56.818Z,24.50
2019-05-21T00:12:02.060Z,25.85
2019-05-21T00:13:07.725Z,22.00
2019-05-21T00:14:12.687Z,22.65
2019-05-21T00:15:18.535Z,21.73
2019-05-21T00:16:23.513Z,21.90
2019-05-21T00:17:29.417Z,23.25
2019-05-21T00:18:34.898Z,20.77
2019-05-21T00:19:41.026Z,23.20
2019-05-21T00:20:46.121Z,22.00
2019-05-21T00:21:51.725Z,21.97
2019-05-21T00:22:57.084Z,24.57
2019-05-21T00:24:02.574Z,24.40
2019-05-21T00:25:07.705Z,24.75
2019-05-21T00:26:13.287Z,23.12
2019-05-21T00:27:18.323Z,26.00
2019-05-21T00:28:40.732Z,25.17
2019-05-21T00:30:21.340Z,25.85
2019-05-21T00:32:02.050Z,22.13
2019-05-21T00:33:42.982Z,23.80
2019-05-21T00:35:25.022Z,23.75
2019-05-21T00:37:07.394Z,22.27
2019-05-21T00:38:51.647Z,23.90
2019-05-21T00:40:30.125Z,22.32
2019-05-21T00:42:05.405Z,22.77
2019-05-21T00:43:11.214Z,22.80
2019-05-21T00:44:16.998Z,24.12
2019-05-21T00:45:22.147Z,22.48
2019-05-21T00:46:27.787Z,24.60
2019-05-21T00:47:32.825Z,26.23
2019-05-21T00:48:38.519Z,26.37
2019-05-21T00:49:43.671Z,25.80
2019-05-21T00:50:49.787Z,24.65
2019-05-21T00:52:07.084Z,24.65
2019-05-21T00:53:02.591Z,20.57
2019-05-21T00:54:07.608Z,25.62
2019-05-21T00:55:13.195Z,24.67
2019-05-21T00:56:18.226Z,23.67
2019-05-21T00:57:24.005Z,25.43
2019-05-21T00:58:29.017Z,23.52
2019-05-21T00:59:34.721Z,24.05
2019-05-21T01:00:39.969Z,25.35
2019-05-21T01:01:45.686Z,23.65
2019-05-21T01:02:50.686Z,23.85
2019-05-21T01:03:56.543Z,22.32
2019-05-21T01:05:01.844Z,25.75
2019-05-21T01:06:08.052Z,22.73
2019-05-21T01:07:13.329Z,21.90
2019-05-21T01:08:19.570Z,23.25
2019-05-21T01:09:24.671Z,25.43
2019-05-21T01:10:30.357Z,27.27
2019-05-21T01:11:35.397Z,24.15
2019-05-21T01:12:41.043Z,23.42
2019-05-21T01:13:46.460Z,25.05
2019-05-21T01:14:52.342Z,23.27
2019-05-21T01:15:57.656Z,26.30
2019-05-21T01:17:03.239Z,25.00
2019-05-21T01:18:08.525Z,24.63
2019-05-21T01:19:14.118Z,24.12
2019-05-21T01:20:19.341Z,24.90
2019-05-21T01:21:24.903Z,23.65
2019-05-21T01:22:30.138Z,26.48
2019-05-21T01:23:35.723Z,24.00
2019-05-21T01:24:41.039Z,24.75
2019-05-21T01:25:46.697Z,26.52
2019-05-21T01:26:51.717Z,25.90
2019-05-21T01:27:57.253Z,23.75
2019-05-21T01:29:02.419Z,23.42
2019-05-21T01:30:08.224Z,25.27
2019-05-21T01:31:13.240Z,25.82
2019-05-21T01:32:19.097Z,25.60
2019-05-21T01:33:24.062Z,25.00
2019-05-21T01:34:29.968Z,25.80
2019-05-21T01:35:34.937Z,26.00
2019-05-21T01:36:40.476Z,25.75
2019-05-21T01:37:45.451Z,27.05
2019-05-21T01:38:51.122Z,27.62
2019-05-21T01:39:56.262Z,25.62
2019-05-21T01:41:01.764Z,25.05
2019-05-21T01:42:06.773Z,26.20
2019-05-21T01:43:12.357Z,26.05
2019-05-21T01:44:17.484Z,24.65
2019-05-21T01:45:22.997Z,27.00
2019-05-21T01:46:28.017Z,24.90
2019-05-21T01:47:33.544Z,28.23
2019-05-21T01:48:38.844Z,25.45
2019-05-21T01:49:44.390Z,26.70
2019-05-21T01:50:49.429Z,25.25
2019-05-21T01:51:55.623Z,27.00
2019-05-21T01:53:01.605Z,26.62
2019-05-21T01:54:07.205Z,27.75
2019-05-21T01:55:12.561Z,25.85
2019-05-21T01:56:18.090Z,29.00
2019-05-21T01:57:23.033Z,29.32
2019-05-21T01:58:28.898Z,30.37
2019-05-21T01:59:34.301Z,28.42
2019-05-21T02:00:39.977Z,26.73
2019-05-21T02:01:45.269Z,26.82
2019-05-21T02:02:51.100Z,26.77
2019-05-21T02:03:56.238Z,25.80
2019-05-21T02:05:02.212Z,27.15
2019-05-21T02:06:07.249Z,26.93
2019-05-21T02:07:13.148Z,26.52
2019-05-21T02:08:18.223Z,27.17
2019-05-21T02:09:23.847Z,28.60
2019-05-21T02:10:28.959Z,25.10
2019-05-21T02:11:34.569Z,25.27
2019-05-21T02:12:39.721Z,25.15
2019-05-21T02:13:45.292Z,28.00
2019-05-21T02:14:50.735Z,27.07
2019-05-21T02:15:56.958Z,27.27
2019-05-21T02:17:01.967Z,25.70
2019-05-21T02:18:07.583Z,24.90
2019-05-21T02:19:12.708Z,25.43
2019-05-21T02:20:18.345Z,25.43
2019-05-21T02:21:23.395Z,25.90
2019-05-21T02:22:29.307Z,26.00
2019-05-21T02:23:34.713Z,25.92
2019-05-21T02:24:40.275Z,27.20
2019-05-21T02:25:45.321Z,25.20
2019-05-21T02:26:50.830Z,25.72
2019-05-21T02:27:56.110Z,26.52
2019-05-21T02:29:02.110Z,26.68
2019-05-21T02:30:09.822Z,25.55
2019-05-21T02:31:15.970Z,27.10
2019-05-21T02:32:21.038Z,24.60
2019-05-21T02:33:26.630Z,24.80
2019-05-21T02:34:31.838Z,24.92
2019-05-21T02:35:52.780Z,26.50
2019-05-21T02:36:44.450Z,25.30
2019-05-21T02:37:49.987Z,26.45
2019-05-21T02:38:55.075Z,26.77
2019-05-21T02:40:02.297Z,26.05
2019-05-21T02:41:07.770Z,25.90
2019-05-21T02:42:13.527Z,25.35
2019-05-21T02:43:18.884Z,25.72
2019-05-21T02:44:24.694Z,23.55
2019-05-21T02:45:29.784Z,25.10
2019-05-21T02:46:35.368Z,23.80
2019-05-21T02:47:40.451Z,21.95
2019-05-21T02:48:46.068Z,23.98
2019-05-21T02:49:51.084Z,25.40
2019-05-21T02:50:56.670Z,24.65
2019-05-21T02:52:01.775Z,22.62
2019-05-21T02:53:07.325Z,24.55
2019-05-21T02:54:12.580Z,23.83
2019-05-21T02:55:18.501Z,26.15
2019-05-21T02:56:24.146Z,25.30
2019-05-21T02:57:48.524Z,24.65
2019-05-21T02:58:53.537Z,23.62
2019-05-21T03:00:00.202Z,22.98
2019-05-21T03:01:27.503Z,23.05
2019-05-21T03:02:37.803Z,18.65
2019-05-21T03:03:43.495Z,23.67
2019-05-21T03:04:48.637Z,25.08
2019-05-21T03:06:12.525Z,23.95
2019-05-21T03:07:19.594Z,20.75
2019-05-21T03:08:25.245Z,22.60
2019-05-21T03:09:30.348Z,25.08
2019-05-21T03:10:35.928Z,24.70
2019-05-21T03:11:41.046Z,26.30
2019-05-21T03:12:49.545Z,23.05
2019-05-21T03:13:54.671Z,24.63
2019-05-21T03:15:00.315Z,25.17
2019-05-21T03:16:05.435Z,26.20
2019-05-21T03:17:11.098Z,25.82
2019-05-21T03:18:16.125Z,24.70
2019-05-21T03:19:21.820Z,28.92
2019-05-21T03:20:26.971Z,27.07
2019-05-21T03:21:32.681Z,27.00
2019-05-21T03:22:37.757Z,28.05
2019-05-21T03:23:43.305Z,23.98
2019-05-21T03:24:48.316Z,26.33
2019-05-21T03:25:53.999Z,27.65
2019-05-21T03:26:59.277Z,24.45
2019-05-21T03:28:04.932Z,25.72
2019-05-21T03:29:09.980Z,27.42
2019-05-21T03:30:16.171Z,24.35
2019-05-21T03:31:21.314Z,22.45
2019-05-21T03:32:27.194Z,25.70
2019-05-21T03:33:32.233Z,25.95
2019-05-21T03:34:37.940Z,21.90
2019-05-21T03:35:43.115Z,24.05
2019-05-21T03:36:48.947Z,24.60
2019-05-21T03:37:53.939Z,24.80
2019-05-21T03:38:59.793Z,24.63
2019-05-21T03:40:05.534Z,27.32
2019-05-21T03:41:11.415Z,25.50
2019-05-21T03:42:16.567Z,22.45
2019-05-21T03:43:22.490Z,26.65
2019-05-21T03:44:27.625Z,25.57
2019-05-21T03:45:33.538Z,26.37
2019-05-21T03:46:38.699Z,27.32
2019-05-21T03:47:44.551Z,26.62
2019-05-21T03:48:49.582Z,24.95
2019-05-21T03:49:55.366Z,27.30
2019-05-21T03:51:00.307Z,27.37
2019-05-21T03:52:05.982Z,28.23
2019-05-21T03:53:11.186Z,25.88
2019-05-21T03:54:16.967Z,23.35
2019-05-21T03:55:22.111Z,27.45
2019-05-21T03:56:27.719Z,26.90
2019-05-21T03:57:32.871Z,30.70
2019-05-21T03:58:38.791Z,25.62
2019-05-21T03:59:44.471Z,27.48
2019-05-21T04:00:50.625Z,24.20
2019-05-21T04:01:55.632Z,26.45
2019-05-21T04:03:01.479Z,29.40
2019-05-21T04:04:06.602Z,28.27
2019-05-21T04:05:12.577Z,29.35
2019-05-21T04:06:17.930Z,27.15
2019-05-21T04:07:23.864Z,27.90
2019-05-21T04:08:28.904Z,28.57
2019-05-21T04:09:34.778Z,28.92
2019-05-21T04:10:40.024Z,28.98
2019-05-21T04:11:45.868Z,24.37
2019-05-21T04:13:07.089Z,30.90
2019-05-21T04:14:14.425Z,28.32
2019-05-21T04:15:21.114Z,28.87
2019-05-21T04:16:36.061Z,29.45
2019-05-21T04:17:53.399Z,29.35
2019-05-21T04:19:11.852Z,30.80
2019-05-21T04:20:17.010Z,30.62
2019-05-21T04:21:22.614Z,30.15
2019-05-21T04:22:27.669Z,31.55
2019-05-21T04:23:33.194Z,33.55
2019-05-21T04:24:38.194Z,30.50
2019-05-21T04:25:43.959Z,31.60
2019-05-21T04:26:49.445Z,27.90
2019-05-21T04:27:55.485Z,31.65
2019-05-21T04:29:00.767Z,32.85
2019-05-21T04:30:10.877Z,33.85
2019-05-21T04:31:13.772Z,31.30
2019-05-21T04:32:19.519Z,32.55
2019-05-21T04:33:24.545Z,33.65
2019-05-21T04:34:30.849Z,31.40
2019-05-21T04:35:35.953Z,33.28
2019-05-21T04:36:41.553Z,32.48
2019-05-21T04:37:46.614Z,32.67
2019-05-21T04:38:52.819Z,33.13
2019-05-21T04:39:57.904Z,33.55
2019-05-21T04:41:05.468Z,32.67
2019-05-21T04:42:10.982Z,35.03
2019-05-21T04:43:16.604Z,33.58
2019-05-21T04:44:21.628Z,31.33
2019-05-21T04:45:27.325Z,33.00
2019-05-21T04:46:32.767Z,35.92
2019-05-21T04:47:38.399Z,34.88
2019-05-21T04:48:43.658Z,33.10
2019-05-21T04:49:49.389Z,33.02
2019-05-21T04:50:54.556Z,31.97
2019-05-21T04:52:00.411Z,34.38
2019-05-21T04:53:05.523Z,38.90
2019-05-21T04:54:11.377Z,36.50
2019-05-21T04:55:16.516Z,38.58
2019-05-21T04:56:22.192Z,39.38
2019-05-21T04:57:27.155Z,37.20
2019-05-21T04:58:32.876Z,34.03
2019-05-21T04:59:38.384Z,34.73
2019-05-21T05:00:47.445Z,36.42
2019-05-21T05:01:52.699Z,35.43
2019-05-21T05:02:58.373Z,37.85
2019-05-21T05:04:03.755Z,34.90
2019-05-21T05:05:09.545Z,35.33
2019-05-21T05:06:14.776Z,39.23
2019-05-21T05:07:28.088Z,36.50
2019-05-21T05:08:27.207Z,37.42
2019-05-21T05:09:33.660Z,36.98
2019-05-21T05:10:38.639Z,34.88
2019-05-21T05:11:44.306Z,33.23
2019-05-21T05:12:49.514Z,36.53
2019-05-21T05:13:55.130Z,37.20
2019-05-21T05:15:00.522Z,34.20
2019-05-21T05:16:06.574Z,35.25
2019-05-21T05:17:11.718Z,35.63
2019-05-21T05:18:17.330Z,36.10
2019-05-21T05:19:22.472Z,37.05
2019-05-21T05:20:28.196Z,34.75
2019-05-21T05:21:33.323Z,35.48
2019-05-21T05:22:39.069Z,35.68
2019-05-21T05:23:44.442Z,36.73
2019-05-21T05:24:50.624Z,35.38
2019-05-21T05:25:56.047Z,35.05
2019-05-21T05:27:01.736Z,36.05
2019-05-21T05:28:07.010Z,36.13
2019-05-21T05:29:12.748Z,36.77
2019-05-21T05:30:18.457Z,36.05
2019-05-21T05:31:26.038Z,39.18
2019-05-21T05:32:31.274Z,36.23
2019-05-21T05:33:36.951Z,39.13
2019-05-21T05:34:41.960Z,38.78
2019-05-21T05:35:47.455Z,37.40
2019-05-21T05:36:52.717Z,35.17
2019-05-21T05:37:58.351Z,35.80
2019-05-21T05:39:04.330Z,35.00
2019-05-21T05:40:10.457Z,36.60
2019-05-21T05:41:15.797Z,39.63
2019-05-21T05:42:21.309Z,34.92
2019-05-21T05:43:26.402Z,36.77
2019-05-21T05:44:32.428Z,40.40
2019-05-21T05:45:37.693Z,39.48
2019-05-21T05:46:43.580Z,32.53
2019-05-21T05:47:48.581Z,33.10
2019-05-21T05:49:05.118Z,42.78
2019-05-21T05:50:12.068Z,39.67
2019-05-21T05:51:17.950Z,38.17
2019-05-21T05:52:22.974Z,37.98
2019-05-21T05:53:28.667Z,39.78
2019-05-21T05:54:33.801Z,42.20
2019-05-21T05:55:39.592Z,39.55
2019-05-21T05:56:44.896Z,43.75
2019-05-21T05:57:50.528Z,37.03
2019-05-21T05:58:55.978Z,38.08
2019-05-21T06:00:01.870Z,40.20
2019-05-21T06:01:07.186Z,39.85
2019-05-21T06:02:12.852Z,42.13
2019-05-21T06:03:18.012Z,39.63
2019-05-21T06:04:24.205Z,40.70
2019-05-21T06:05:29.339Z,38.17
2019-05-21T06:06:35.099Z,39.60
2019-05-21T06:07:40.064Z,41.30
2019-05-21T06:08:45.653Z,44.38
2019-05-21T06:09:51.033Z,40.67
2019-05-21T06:10:57.015Z,43.80
2019-05-21T06:12:02.526Z,38.85
2019-05-21T06:13:08.161Z,37.70
2019-05-21T06:14:13.447Z,38.85
2019-05-21T06:15:19.687Z,32.17
2019-05-21T06:16:25.094Z,39.58
2019-05-21T06:17:31.100Z,39.23
2019-05-21T06:18:36.259Z,40.15
2019-05-21T06:19:42.203Z,38.08
2019-05-21T06:20:47.298Z,37.98
2019-05-21T06:21:52.983Z,36.03
2019-05-21T06:22:58.401Z,39.35
2019-05-21T06:24:04.428Z,33.70
2019-05-21T06:25:10.435Z,39.78
2019-05-21T06:26:16.043Z,35.68
2019-05-21T06:27:21.329Z,37.73
2019-05-21T06:28:26.882Z,36.83
2019-05-21T06:29:31.948Z,37.70
2019-05-21T06:30:38.117Z,38.63
2019-05-21T06:31:43.260Z,38.70
2019-05-21T06:32:49.324Z,38.10
2019-05-21T06:33:54.349Z,39.70
2019-05-21T06:35:00.449Z,41.00
2019-05-21T06:36:05.627Z,39.33
2019-05-21T06:37:11.213Z,36.28
2019-05-21T06:38:18.330Z,38.75
2019-05-21T06:39:24.092Z,35.88
2019-05-21T06:40:29.171Z,37.10
2019-05-21T06:41:35.086Z,39.85
2019-05-21T06:42:40.401Z,33.48
2019-05-21T06:43:45.973Z,36.50
2019-05-21T06:44:51.424Z,31.97
2019-05-21T06:45:57.245Z,35.13
2019-05-21T06:47:02.700Z,35.03
2019-05-21T06:48:08.316Z,34.20
2019-05-21T06:49:13.658Z,37.38
2019-05-21T06:50:19.439Z,34.65
2019-05-21T06:51:24.534Z,34.05
2019-05-21T06:52:30.051Z,31.73
2019-05-21T06:53:35.193Z,36.65
2019-05-21T06:54:40.921Z,28.30
2019-05-21T06:55:46.306Z,25.27
2019-05-21T06:56:52.147Z,32.95
2019-05-21T06:57:57.185Z,32.40
2019-05-21T06:59:02.890Z,33.00
2019-05-21T07:00:09.487Z,34.80
2019-05-21T07:01:15.082Z,33.73
2019-05-21T07:02:20.139Z,36.70
2019-05-21T07:03:25.764Z,31.87
2019-05-21T07:04:30.737Z,29.65
2019-05-21T07:05:36.273Z,31.85
2019-05-21T07:06:44.619Z,30.62
2019-05-21T07:07:48.628Z,30.82
2019-05-21T07:08:53.677Z,30.52
2019-05-21T07:09:59.268Z,30.40
2019-05-21T07:11:04.583Z,31.20
2019-05-21T07:12:10.557Z,32.08
2019-05-21T07:13:15.791Z,32.15
2019-05-21T07:14:21.538Z,29.10
2019-05-21T07:15:26.751Z,32.30
2019-05-21T07:16:32.588Z,34.85
2019-05-21T07:17:37.599Z,29.20
2019-05-21T07:18:43.333Z,29.42
2019-05-21T07:19:48.499Z,31.57
2019-05-21T07:20:54.332Z,28.50
2019-05-21T07:22:12.233Z,32.13
2019-05-21T07:23:06.898Z,27.85
2019-05-21T07:24:12.673Z,30.75
2019-05-21T07:25:18.850Z,31.65
2019-05-21T07:26:23.870Z,30.00
2019-05-21T07:27:29.815Z,33.02
2019-05-21T07:28:34.976Z,32.15
2019-05-21T07:29:40.462Z,29.55
2019-05-21T07:30:45.784Z,31.65
2019-05-21T07:31:51.355Z,30.17
2019-05-21T07:32:56.926Z,31.00
2019-05-21T07:34:02.625Z,29.45
2019-05-21T07:35:07.811Z,28.80
2019-05-21T07:36:13.484Z,32.90
2019-05-21T07:37:18.799Z,28.05
2019-05-21T07:38:25.203Z,29.37
2019-05-21T07:39:30.535Z,30.17
2019-05-21T07:40:36.309Z,25.97
2019-05-21T07:41:41.450Z,29.60
2019-05-21T07:42:47.035Z,28.02
2019-05-21T07:43:52.154Z,29.27
2019-05-21T07:44:57.889Z,29.50
2019-05-21T07:46:03.302Z,27.90
2019-05-21T07:47:08.959Z,29.52
2019-05-21T07:48:14.312Z,29.05
2019-05-21T07:49:19.889Z,31.05
2019-05-21T07:50:25.196Z,27.07
2019-05-21T07:51:31.276Z,28.42
2019-05-21T07:52:36.462Z,27.52
2019-05-21T07:53:42.086Z,27.25
2019-05-21T07:54:47.245Z,29.27
2019-05-21T07:55:52.931Z,28.73
2019-05-21T07:56:58.341Z,28.67
2019-05-21T07:58:03.854Z,26.65
2019-05-21T07:59:08.989Z,27.90
2019-05-21T08:00:16.246Z,28.17
2019-05-21T08:01:21.293Z,26.30
2019-05-21T08:02:26.971Z,30.10
2019-05-21T08:03:32.106Z,27.15
2019-05-21T08:04:37.701Z,27.07
2019-05-21T08:05:42.696Z,28.70
2019-05-21T08:06:48.293Z,29.48
2019-05-21T08:07:53.405Z,29.72
2019-05-21T08:09:12.419Z,29.67
2019-05-21T08:10:07.103Z,27.93
2019-05-21T08:11:12.736Z,25.85
2019-05-21T08:12:37.464Z,26.80
2019-05-21T08:13:25.330Z,28.77
2019-05-21T08:14:30.352Z,31.10
2019-05-21T08:15:36.271Z,27.50
2019-05-21T08:16:41.484Z,26.87
2019-05-21T08:17:47.345Z,26.70
2019-05-21T08:18:52.599Z,26.95
2019-05-21T08:20:08.517Z,27.25
2019-05-21T08:21:05.233Z,26.87
2019-05-21T08:22:10.893Z,26.12
2019-05-21T08:23:15.944Z,26.80
2019-05-21T08:24:21.797Z,25.68
2019-05-21T08:25:27.007Z,25.27
2019-05-21T08:26:32.863Z,24.18
2019-05-21T08:27:37.941Z,24.87
2019-05-21T08:28:43.616Z,25.90
2019-05-21T08:29:49.575Z,24.72
2019-05-21T08:30:55.823Z,26.95
2019-05-21T08:32:00.776Z,26.42
2019-05-21T08:33:06.468Z,25.27
2019-05-21T08:34:11.524Z,26.17
2019-05-21T08:35:17.616Z,26.52
2019-05-21T08:36:22.690Z,27.98
2019-05-21T08:37:28.282Z,29.70
2019-05-21T08:38:33.359Z,26.35
2019-05-21T08:39:39.598Z,27.07
2019-05-21T08:40:45.627Z,27.13
2019-05-21T08:41:51.287Z,28.77
2019-05-21T08:42:56.305Z,29.42
2019-05-21T08:44:02.133Z,24.67
2019-05-21T08:45:07.817Z,27.82
2019-05-21T08:46:13.684Z,28.70
2019-05-21T08:47:19.090Z,29.67
2019-05-21T08:48:24.750Z,28.50
2019-05-21T08:49:29.922Z,30.15
2019-05-21T08:50:36.154Z,27.50
2019-05-21T08:51:41.418Z,30.82
2019-05-21T08:52:47.123Z,27.17
2019-05-21T08:53:52.457Z,27.52
2019-05-21T08:54:58.221Z,29.63
2019-05-21T08:56:03.394Z,29.00
2019-05-21T08:57:09.041Z,27.37
2019-05-21T08:58:14.188Z,27.85
2019-05-21T08:59:19.676Z,28.90
2019-05-21T09:00:25.701Z,28.35
2019-05-21T09:01:31.634Z,28.07
2019-05-21T09:02:36.743Z,30.10
2019-05-21T09:03:42.446Z,28.55
2019-05-21T09:04:47.585Z,28.55
2019-05-21T09:05:53.207Z,31.80
2019-05-21T09:06:58.310Z,28.47
2019-05-21T09:08:04.057Z,26.70
2019-05-21T09:09:09.196Z,30.32
2019-05-21T09:10:16.541Z,28.10
2019-05-21T09:11:21.561Z,26.02
2019-05-21T09:12:27.229Z,24.98
2019-05-21T09:13:32.505Z,25.92
2019-05-21T09:14:38.083Z,24.07
2019-05-21T09:15:43.108Z,23.80
2019-05-21T09:16:48.796Z,24.85
2019-05-21T09:17:53.896Z,25.17
2019-05-21T09:18:59.795Z,25.68
2019-05-21T09:20:06.305Z,24.25
2019-05-21T09:21:13.329Z,24.57
2019-05-21T09:22:21.767Z,22.40
2019-05-21T09:23:27.803Z,24.15
2019-05-21T09:24:33.251Z,22.22
2019-05-21T09:25:39.501Z,23.80
2019-05-21T09:26:45.026Z,24.80
2019-05-21T09:27:51.254Z,23.62
2019-05-21T09:28:57.263Z,23.45
2019-05-21T09:30:03.603Z,23.45
2019-05-21T09:31:09.144Z,22.85
2019-05-21T09:32:18.396Z,24.05
2019-05-21T09:33:24.307Z,22.10
2019-05-21T09:34:46.031Z,23.18
2019-05-21T09:35:36.688Z,21.27
2019-05-21T09:36:42.621Z,22.90
2019-05-21T09:37:47.640Z,23.70
2019-05-21T09:38:53.457Z,23.42
2019-05-21T09:39:58.655Z,23.25
2019-05-21T09:41:04.267Z,25.37
2019-05-21T09:42:09.619Z,25.12
2019-05-21T09:43:15.304Z,23.22
2019-05-21T09:44:20.308Z,22.87
2019-05-21T09:45:25.911Z,23.50
2019-05-21T09:46:31.256Z,24.85
2019-05-21T09:47:36.948Z,23.73
2019-05-21T09:48:42.156Z,25.02
2019-05-21T09:49:47.819Z,24.92
2019-05-21T09:50:53.174Z,25.25
2019-05-21T09:51:58.782Z,25.08
2019-05-21T09:53:03.765Z,27.67
2019-05-21T09:54:10.025Z,25.65
2019-05-21T09:55:15.123Z,25.75
2019-05-21T09:56:33.593Z,26.68
2019-05-21T09:57:48.527Z,24.87
2019-05-21T09:58:55.448Z,25.20
2019-05-21T10:00:12.216Z,25.70
2019-05-21T10:01:31.984Z,27.15
2019-05-21T10:02:37.179Z,25.10
2019-05-21T10:03:43.889Z,27.27
2019-05-21T10:04:49.184Z,26.12
2019-05-21T10:05:54.941Z,25.48
2019-05-21T10:07:00.100Z,24.50
2019-05-21T10:08:06.367Z,25.35
2019-05-21T10:09:15.492Z,22.90
2019-05-21T10:10:21.158Z,23.32
2019-05-21T10:11:26.510Z,23.20
2019-05-21T10:12:32.181Z,24.45
2019-05-21T10:13:37.232Z,24.77
2019-05-21T10:14:43.139Z,25.40
2019-05-21T10:15:48.331Z,21.37
2019-05-21T10:16:54.095Z,24.05
2019-05-21T10:17:59.136Z,24.27
2019-05-21T10:19:04.794Z,27.25
2019-05-21T10:20:10.278Z,26.60
2019-05-21T10:21:15.970Z,25.70
2019-05-21T10:22:21.229Z,24.77
2019-05-21T10:23:26.982Z,25.20
2019-05-21T10:24:32.369Z,25.52
2019-05-21T10:25:38.533Z,25.97
2019-05-21T10:26:43.649Z,26.95
2019-05-21T10:27:49.397Z,28.52
2019-05-21T10:28:54.915Z,27.02
2019-05-21T10:30:00.456Z,26.50
2019-05-21T10:31:05.562Z,30.45
2019-05-21T10:32:11.233Z,27.25
2019-05-21T10:33:16.395Z,27.30
2019-05-21T10:34:22.478Z,31.52
2019-05-21T10:35:27.980Z,27.62
2019-05-21T10:36:33.659Z,34.15
2019-05-21T10:37:53.754Z,28.10
2019-05-21T10:38:46.076Z,28.27
2019-05-21T10:39:51.446Z,26.90
2019-05-21T10:40:57.322Z,26.68
2019-05-21T10:42:02.604Z,29.70
2019-05-21T10:43:08.995Z,27.07
2019-05-21T10:44:15.277Z,30.27
2019-05-21T10:45:21.254Z,27.77
2019-05-21T10:46:26.599Z,32.38
2019-05-21T10:47:32.305Z,29.00
2019-05-21T10:48:37.331Z,29.32
2019-05-21T10:49:43.178Z,28.87
2019-05-21T10:50:48.437Z,30.70
2019-05-21T10:51:54.116Z,30.30
2019-05-21T10:52:59.255Z,28.10
2019-05-21T10:54:06.412Z,31.15
2019-05-21T10:55:16.146Z,31.82
2019-05-21T10:56:22.079Z,31.93
2019-05-21T10:57:27.254Z,30.70
2019-05-21T10:58:33.936Z,29.63
2019-05-21T10:59:38.957Z,32.40
2019-05-21T11:00:45.143Z,31.55
2019-05-21T11:02:08.143Z,32.70
2019-05-21T11:03:18.445Z,32.53
2019-05-21T11:04:40.954Z,31.20
2019-05-21T11:05:48.929Z,33.30
2019-05-21T11:06:54.869Z,31.37
2019-05-21T11:08:22.337Z,33.73
2019-05-21T11:09:10.626Z,30.10
2019-05-21T11:10:16.110Z,32.15
2019-05-21T11:11:21.816Z,32.13
2019-05-21T11:12:26.999Z,25.52
2019-05-21T11:13:32.830Z,30.97
2019-05-21T11:14:38.136Z,31.80
2019-05-21T11:15:43.863Z,33.90
2019-05-21T11:16:49.181Z,31.87
2019-05-21T11:18:09.754Z,30.82
2019-05-21T11:19:01.697Z,33.33
2019-05-21T11:20:07.733Z,33.23
2019-05-21T11:21:12.849Z,33.67
2019-05-21T11:22:18.546Z,31.65
2019-05-21T11:23:23.686Z,32.33
2019-05-21T11:24:29.335Z,29.82
2019-05-21T11:25:34.565Z,31.97
2019-05-21T11:26:40.182Z,35.23
2019-05-21T11:27:45.531Z,35.45
2019-05-21T11:28:51.585Z,35.35
2019-05-21T11:29:56.575Z,33.40
2019-05-21T11:31:02.188Z,37.03
2019-05-21T11:32:09.830Z,36.33
2019-05-21T11:33:15.746Z,32.63
2019-05-21T11:34:20.787Z,32.50
2019-05-21T11:35:26.628Z,35.15
2019-05-21T11:36:31.827Z,33.50
2019-05-21T11:37:37.706Z,35.35
2019-05-21T11:38:42.873Z,33.67
2019-05-21T11:39:48.624Z,35.60
2019-05-21T11:40:53.653Z,33.83
2019-05-21T11:41:59.219Z,33.67
2019-05-21T11:43:04.411Z,35.10
2019-05-21T11:44:10.131Z,35.45
2019-05-21T11:45:31.186Z,32.80
2019-05-21T11:46:22.989Z,36.98
2019-05-21T11:47:28.108Z,34.25
2019-05-21T11:48:33.807Z,35.17
2019-05-21T11:49:39.258Z,34.30
2019-05-21T11:50:45.099Z,34.60
2019-05-21T11:51:50.437Z,33.45
2019-05-21T11:52:56.399Z,35.33
2019-05-21T11:54:01.500Z,33.60
2019-05-21T11:55:07.277Z,35.25
2019-05-21T11:56:12.326Z,33.90
2019-05-21T11:57:17.991Z,31.25
2019-05-21T11:58:23.568Z,34.83
2019-05-21T11:59:29.393Z,33.90
2019-05-21T12:00:34.932Z,34.15
2019-05-21T12:01:40.596Z,36.17
2019-05-21T12:02:45.623Z,33.95
2019-05-21T12:03:51.578Z,34.90
2019-05-21T12:04:56.948Z,33.38
2019-05-21T12:06:02.483Z,34.50
2019-05-21T12:07:07.721Z,33.18
2019-05-21T12:08:13.610Z,33.70
2019-05-21T12:09:18.694Z,33.53
2019-05-21T12:10:24.313Z,34.50
2019-05-21T12:11:29.393Z,33.63
2019-05-21T12:12:35.213Z,34.80
2019-05-21T12:13:40.292Z,33.13
2019-05-21T12:14:45.888Z,35.35
2019-05-21T12:15:51.233Z,35.85
2019-05-21T12:16:57.011Z,34.00
2019-05-21T12:18:02.303Z,29.70
2019-05-21T12:19:08.737Z,33.33
2019-05-21T12:20:14.491Z,31.73
2019-05-21T12:21:20.291Z,35.40
2019-05-21T12:22:25.233Z,32.25
2019-05-21T12:23:31.276Z,34.55
2019-05-21T12:24:36.914Z,33.67
2019-05-21T12:25:42.557Z,32.93
2019-05-21T12:26:47.681Z,34.65
2019-05-21T12:27:53.719Z,34.53
2019-05-21T12:28:58.849Z,31.40
2019-05-21T12:30:04.818Z,33.50
2019-05-21T12:31:09.895Z,32.73
2019-05-21T12:32:15.436Z,32.73
2019-05-21T12:33:20.403Z,36.10
2019-05-21T12:34:26.002Z,34.78
2019-05-21T12:35:31.202Z,30.95
2019-05-21T12:36:36.905Z,33.58
2019-05-21T12:37:42.221Z,34.43
2019-05-21T12:38:47.880Z,33.55
2019-05-21T12:39:53.246Z,32.00
2019-05-21T12:40:58.990Z,30.50
2019-05-21T12:42:04.550Z,32.13
2019-05-21T12:43:10.240Z,32.70
2019-05-21T12:44:15.376Z,34.27
2019-05-21T12:45:21.086Z,32.45
2019-05-21T12:46:26.159Z,33.58
2019-05-21T12:47:31.819Z,32.85
2019-05-21T12:48:36.855Z,34.03
2019-05-21T12:49:42.517Z,35.75
2019-05-21T12:50:47.942Z,34.65
2019-05-21T12:51:53.683Z,32.00
2019-05-21T12:52:58.792Z,32.17
2019-05-21T12:54:04.853Z,31.35
2019-05-21T12:55:10.492Z,31.97
2019-05-21T12:56:16.344Z,33.63
2019-05-21T12:57:21.590Z,32.25
2019-05-21T12:58:27.516Z,32.35
2019-05-21T12:59:32.654Z,33.05
2019-05-21T13:00:40.208Z,30.17
2019-05-21T13:01:45.337Z,31.70
2019-05-21T13:02:50.948Z,34.25
2019-05-21T13:03:56.055Z,32.70
2019-05-21T13:05:01.577Z,32.80
2019-05-21T13:06:06.741Z,32.67
2019-05-21T13:07:12.582Z,32.45
2019-05-21T13:08:17.873Z,31.15
2019-05-21T13:09:32.297Z,32.08
2019-05-21T13:10:30.318Z,30.82
2019-05-21T13:11:36.313Z,32.48
2019-05-21T13:12:41.638Z,31.80
2019-05-21T13:13:47.326Z,31.82
2019-05-21T13:14:52.468Z,32.80
2019-05-21T13:15:58.228Z,32.00
2019-05-21T13:17:03.580Z,32.35
2019-05-21T13:18:09.324Z,29.67
2019-05-21T13:19:15.337Z,32.20
2019-05-21T13:20:22.281Z,31.77
2019-05-21T13:21:27.317Z,32.33
2019-05-21T13:22:33.045Z,32.98
2019-05-21T13:23:38.050Z,31.80
2019-05-21T13:24:43.807Z,33.55
2019-05-21T13:25:48.894Z,31.15
2019-05-21T13:26:54.844Z,33.45
2019-05-21T13:27:59.879Z,33.42
2019-05-21T13:29:05.831Z,33.73
2019-05-21T13:30:11.383Z,31.95
2019-05-21T13:31:17.238Z,32.70
2019-05-21T13:32:22.621Z,31.93
2019-05-21T13:33:28.786Z,37.30
2019-05-21T13:34:34.098Z,31.33
2019-05-21T13:35:39.767Z,34.13
2019-05-21T13:36:45.024Z,32.90
2019-05-21T13:37:50.996Z,33.63
2019-05-21T13:38:56.046Z,34.08
2019-05-21T13:40:01.776Z,35.80
2019-05-21T13:41:06.853Z,33.63
2019-05-21T13:42:12.464Z,31.57
2019-05-21T13:43:21.006Z,33.67
2019-05-21T13:44:25.007Z,33.67
2019-05-21T13:45:30.108Z,33.35
2019-05-21T13:46:35.949Z,35.08
2019-05-21T13:47:41.238Z,33.75
2019-05-21T13:48:47.330Z,33.88
2019-05-21T13:49:52.679Z,34.55
2019-05-21T13:50:58.273Z,34.08
2019-05-21T13:52:03.426Z,32.15
2019-05-21T13:53:09.534Z,32.28
2019-05-21T13:54:14.603Z,33.65
2019-05-21T13:55:20.450Z,33.18
2019-05-21T13:56:25.544Z,34.70
2019-05-21T13:57:31.476Z,31.52
2019-05-21T13:58:36.890Z,34.05
2019-05-21T13:59:42.655Z,30.55
2019-05-21T14:00:50.238Z,35.28
2019-05-21T14:01:55.790Z,34.18
2019-05-21T14:03:00.886Z,32.45
2019-05-21T14:04:06.650Z,31.07
2019-05-21T14:05:11.865Z,31.12
2019-05-21T14:06:20.173Z,32.17
2019-05-21T14:07:24.397Z,32.17
2019-05-21T14:08:30.085Z,32.53
2019-05-21T14:09:35.127Z,31.20
2019-05-21T14:10:41.236Z,33.42
2019-05-21T14:11:46.420Z,32.03
2019-05-21T14:12:52.050Z,32.42